Time;durP1;ratioP1;P1;durP2;ratioP2;P2;SDS_P1;SDS_P2;PMS_P1;PMS_P2;Temp;Humidity;BMP_temperature;BMP_pressure;BME280_temperature;BME280_humidity;BME280_pressure;Samples;Min_cycle;Max_cycle;Signal;HPM_P1;HPM_P2
2022/01/04 00:02:22;;;;;;;16.53;5.40;;;;;;;5.68;100.00;99315.05;3432426;83;98762;-82
2022/01/04 00:07:22;;;;;;;16.23;5.00;;;;;;;5.71;100.00;99312.36;3434867;84;98855;-83
2022/01/04 00:17:43;;;;;;;12.80;4.53;;;;;;;5.84;100.00;99302.79;3430364;84;25855;-83
2022/01/04 00:22:44;;;;;;;16.03;5.13;;;;;;;5.89;100.00;99295.63;3459302;83;98660;-83
2022/01/04 00:27:45;;;;;;;14.33;4.40;;;;;;;5.97;100.00;99297.30;3411404;83;98513;-83
2022/01/04 00:32:46;;;;;;;13.70;3.97;;;;;;;6.01;100.00;99295.38;3344527;85;98635;-82
2022/01/04 00:37:47;;;;;;;16.07;4.60;;;;;;;6.06;100.00;99289.58;3314519;86;99225;-83
2022/01/04 00:42:48;;;;;;;17.70;4.40;;;;;;;6.08;100.00;99279.65;3399315;84;99032;-83
2022/01/04 00:52:58;;;;;;;12.85;3.95;;;;;;;6.06;100.00;99273.19;3381163;84;98494;-84
2022/01/04 00:58:01;;;;;;;14.20;5.03;;;;;;;6.01;100.00;99263.20;3432023;85;98541;-82
2022/01/04 01:03:03;;;;;;;11.30;4.10;;;;;;;5.96;100.00;99259.44;3359993;86;99165;-83
2022/01/04 01:08:05;;;;;;;17.57;5.37;;;;;;;5.92;100.00;99253.14;3458569;83;98692;-84
2022/01/04 01:13:06;;;;;;;11.10;3.57;;;;;;;5.85;100.00;99244.29;3472721;83;99191;-83
2022/01/04 01:18:08;;;;;;;11.27;3.70;;;;;;;5.81;100.00;99236.66;3477962;83;98521;-84
2022/01/04 01:23:09;;;;;;;15.07;4.20;;;;;;;5.77;100.00;99233.07;3486710;83;98555;-82
2022/01/04 01:28:10;;;;;;;12.60;4.33;;;;;;;5.73;100.00;99227.38;3474073;83;99089;-84
2022/01/04 01:33:12;;;;;;;15.03;4.57;;;;;;;5.67;100.00;99226.14;3419450;85;98661;-83
2022/01/04 01:38:14;;;;;;;12.87;3.60;;;;;;;5.62;100.00;99211.46;3469796;83;104031;-84
2022/01/04 01:43:17;;;;;;;12.65;3.95;;;;;;;5.58;100.00;99217.45;3452798;84;98938;-83
2022/01/04 01:48:18;;;;;;;11.77;3.83;;;;;;;5.55;100.00;99216.82;3453855;83;98342;-83
2022/01/04 01:53:19;;;;;;;16.53;4.60;;;;;;;5.52;100.00;99218.95;3509026;82;98744;-82
2022/01/04 01:58:20;;;;;;;12.90;3.30;;;;;;;5.52;100.00;99206.67;3416517;85;98840;-83
2022/01/04 02:03:22;;;;;;;8.40;3.17;;;;;;;5.54;100.00;99215.26;3465930;82;98981;-83
2022/01/04 02:08:23;;;;;;;11.27;3.60;;;;;;;5.56;100.00;99197.35;3464850;82;98994;-83
2022/01/04 02:13:25;;;;;;;11.57;3.23;;;;;;;5.56;100.00;99211.00;3452400;84;98748;-82
2022/01/04 02:18:26;;;;;;;14.07;4.27;;;;;;;5.57;100.00;99196.79;3384939;85;98724;-83
2022/01/04 02:23:26;;;;;;;11.10;3.77;;;;;;;5.58;100.00;99193.69;3442634;83;32959;-82
2022/01/04 02:28:29;;;;;;;12.63;4.00;;;;;;;5.59;100.00;99193.89;3405799;85;98954;-83
2022/01/04 02:33:30;;;;;;;10.10;3.30;;;;;;;5.60;100.00;99183.17;3393737;85;98616;-83
2022/01/04 02:38:33;;;;;;;11.00;3.30;;;;;;;5.60;100.00;99170.09;3358031;85;98910;-83
2022/01/04 02:43:34;;;;;;;11.47;4.40;;;;;;;5.61;100.00;99164.84;3436037;84;99123;-83
2022/01/04 02:48:43;;;;;;;10.43;3.73;;;;;;;5.61;100.00;99162.91;3526264;82;98634;-83
2022/01/04 02:53:43;;;;;;;9.33;3.50;;;;;;;5.60;100.00;99154.52;3526491;82;26295;-84
2022/01/04 02:58:44;;;;;;;10.80;3.33;;;;;;;5.57;100.00;99153.13;3518440;82;98705;-83
2022/01/04 03:03:45;;;;;;;13.73;4.00;;;;;;;5.56;100.00;99146.87;3523959;82;98538;-82
2022/01/04 03:08:46;;;;;;;10.32;3.87;;;;;;;5.51;100.00;99134.92;3529870;82;99132;-82
2022/01/04 03:13:47;;;;;;;11.57;4.60;;;;;;;5.46;100.00;99135.27;3531265;81;99045;-83
2022/01/04 03:23:54;;;;;;;13.73;4.77;;;;;;;5.29;100.00;99102.36;3495989;83;26573;-82
2022/01/04 03:28:56;;;;;;;9.93;3.93;;;;;;;5.35;100.00;99116.63;3514847;81;99176;-83
2022/01/04 03:33:57;;;;;;;12.27;4.37;;;;;;;5.33;100.00;99108.05;3568127;81;98669;-83
2022/01/04 03:38:59;;;;;;;11.87;5.17;;;;;;;5.31;100.00;99093.22;3561210;81;98686;-83
2022/01/04 03:44:00;;;;;;;16.37;5.30;;;;;;;5.30;100.00;99074.69;3573685;81;98755;-83
2022/01/04 03:49:02;;;;;;;17.03;6.33;;;;;;;5.30;100.00;99076.05;3553331;81;98584;-83
2022/01/04 03:54:03;;;;;;;20.00;7.57;;;;;;;5.30;100.00;99076.65;3552044;81;33483;-84
2022/01/04 03:59:04;;;;;;;17.70;7.20;;;;;;;5.29;100.00;99068.27;3548780;81;98703;-83
2022/01/04 04:04:05;;;;;;;13.60;5.53;;;;;;;5.28;100.00;99065.31;3555247;81;98911;-83
2022/01/04 04:09:06;;;;;;;12.60;4.87;;;;;;;5.26;100.00;99064.34;3552372;81;99152;-83
2022/01/04 04:14:07;;;;;;;11.43;4.67;;;;;;;5.26;100.00;99071.16;3556401;81;99151;-83
2022/01/04 04:19:08;;;;;;;11.97;4.97;;;;;;;5.25;100.00;99054.57;3538911;81;98783;-82
2022/01/04 04:24:09;;;;;;;11.83;4.23;;;;;;;5.27;100.00;99048.75;3501711;83;33450;-82
2022/01/04 04:29:10;;;;;;;12.60;4.87;;;;;;;5.30;100.00;99046.65;3492042;83;98574;-84
2022/01/04 04:34:11;;;;;;;11.80;4.13;;;;;;;5.32;100.00;99041.02;3508110;83;98478;-83
2022/01/04 04:39:11;;;;;;;11.33;4.27;;;;;;;5.34;100.00;99037.92;3482784;83;98679;-83
2022/01/04 04:44:12;;;;;;;12.07;4.33;;;;;;;5.36;100.00;99032.27;3504198;83;98761;-83
2022/01/04 04:49:13;;;;;;;13.97;5.20;;;;;;;5.38;100.00;99031.90;3483445;83;98955;-83
2022/01/04 04:54:15;;;;;;;12.10;4.93;;;;;;;5.39;100.00;99022.55;3489912;83;32554;-83
2022/01/04 04:59:15;;;;;;;10.77;4.83;;;;;;;5.41;100.00;99026.47;3496981;83;98648;-82
2022/01/04 05:04:18;;;;;;;15.77;5.03;;;;;;;5.43;100.00;99013.83;3466294;83;99047;-83
2022/01/04 05:09:19;;;;;;;13.95;4.67;;;;;;;5.45;100.00;99000.61;3478388;82;98701;-83
2022/01/04 05:14:20;;;;;;;11.37;4.20;;;;;;;5.46;100.00;98998.09;3476765;83;98602;-83
2022/01/04 05:19:21;;;;;;;10.00;4.33;;;;;;;5.51;100.00;98995.01;3408293;84;98706;-83
2022/01/04 05:24:22;;;;;;;16.40;4.97;;;;;;;5.53;100.00;98988.02;3468073;84;31624;-83
2022/01/04 05:29:23;;;;;;;14.60;4.47;;;;;;;5.56;100.00;98994.06;3454119;83;98275;-83
2022/01/04 05:34:25;;;;;;;11.27;4.90;;;;;;;5.58;100.00;98979.48;3462508;83;97716;-83
2022/01/04 05:39:26;;;;;;;11.97;4.13;;;;;;;5.59;100.00;98972.06;3453247;82;98841;-83
2022/01/04 05:44:27;;;;;;;11.87;4.93;;;;;;;5.59;100.00;98959.78;3413607;84;98747;-83
2022/01/04 05:49:28;;;;;;;10.70;4.30;;;;;;;5.60;100.00;98953.16;3472392;83;98706;-83
2022/01/04 05:54:29;;;;;;;10.63;4.77;;;;;;;5.60;100.00;98944.97;3489689;83;99083;-84
2022/01/04 05:59:29;;;;;;;10.10;3.83;;;;;;;5.61;100.00;98947.33;3503650;82;98237;-83
2022/01/04 06:04:30;;;;;;;13.13;4.47;;;;;;;5.59;100.00;98942.84;3484320;82;98788;-83
2022/01/04 06:09:40;;;;;;;11.50;4.40;;;;;;;5.59;100.00;98944.77;3499420;82;99084;-83
2022/01/04 06:14:51;;;;;;;12.10;4.72;;;;;;;5.57;100.00;98938.32;3512320;83;99162;-83
2022/01/04 06:19:55;;;;;;;12.10;5.47;;;;;;;5.55;100.00;98920.19;3498038;82;98689;-83
2022/01/04 06:24:56;;;;;;;9.70;4.50;;;;;;;5.56;100.00;98910.84;3480862;83;99122;-82
2022/01/04 06:29:57;;;;;;;10.72;4.65;;;;;;;5.57;100.00;98908.31;3490522;83;98172;-83
2022/01/04 06:34:58;;;;;;;12.83;5.67;;;;;;;5.60;100.00;98904.83;3513544;82;98813;-82
2022/01/04 06:40:00;;;;;;;11.40;5.20;;;;;;;5.63;100.00;98906.78;3510257;81;98991;-83
2022/01/04 06:45:01;;;;;;;15.23;5.00;;;;;;;5.65;100.00;98905.84;3507955;83;99144;-84
2022/01/04 06:50:03;;;;;;;12.83;5.67;;;;;;;5.70;100.00;98900.59;3508083;83;99121;-83
2022/01/04 06:55:05;;;;;;;11.67;5.17;;;;;;;5.74;100.00;98895.34;3515848;82;99136;-83
2022/01/04 07:00:07;;;;;;;12.33;5.30;;;;;;;5.78;100.00;98894.79;3513291;82;98993;-83
2022/01/04 07:05:08;;;;;;;13.57;5.40;;;;;;;5.82;100.00;98892.11;3515668;82;99109;-83
2022/01/04 07:10:10;;;;;;;13.10;6.10;;;;;;;5.85;100.00;98874.98;3507248;83;99034;-83
2022/01/04 07:15:10;;;;;;;20.63;9.03;;;;;;;5.88;100.00;98846.89;3505474;83;99210;-82
2022/01/04 07:20:11;;;;;;;14.30;6.43;;;;;;;5.91;100.00;98844.77;3507036;82;99181;-84
2022/01/04 07:25:12;;;;;;;13.97;5.40;;;;;;;5.93;100.00;98839.12;3536902;82;99241;-83
2022/01/04 07:30:13;;;;;;;12.27;5.70;;;;;;;5.95;100.00;98844.98;3531207;81;98669;-83
2022/01/04 07:35:14;;;;;;;11.77;5.23;;;;;;;5.97;100.00;98831.75;3543000;81;99091;-84
2022/01/04 07:40:15;;;;;;;11.27;4.93;;;;;;;6.00;100.00;98819.27;3545493;81;98766;-84
2022/01/04 07:45:16;;;;;;;12.33;5.53;;;;;;;5.95;100.00;98786.88;3533351;82;99252;-85
2022/01/04 07:50:17;;;;;;;15.60;6.60;;;;;;;6.05;100.00;98784.77;3471512;83;98691;-83
2022/01/04 07:55:19;;;;;;;11.90;5.60;;;;;;;6.07;100.00;98791.41;3480500;83;99274;-83
2022/01/04 08:00:20;;;;;;;11.97;5.57;;;;;;;6.09;100.00;98793.16;3469681;83;98647;-83
2022/01/04 08:05:23;;;;;;;11.13;5.10;;;;;;;6.10;100.00;98789.83;3473911;83;98445;-83
2022/01/04 08:10:29;;;;;;;14.30;6.67;;;;;;;6.14;100.00;98776.97;3470264;83;98917;-83
2022/01/04 08:15:43;;;;;;;14.83;7.10;;;;;;;6.16;100.00;98778.75;3474144;82;98697;-83
2022/01/04 08:20:39;;;;;;;16.93;6.95;;;;;;;6.20;100.00;98778.94;3467349;83;99297;-83
2022/01/04 08:25:45;;;;;;;15.43;7.97;;;;;;;6.22;100.00;98780.69;3468687;83;98649;-83
2022/01/04 08:30:46;;;;;;;14.78;7.80;;;;;;;6.28;100.00;98773.67;3468532;83;99237;-83
2022/01/04 08:35:47;;;;;;;19.87;9.10;;;;;;;6.34;100.00;98768.63;3479948;83;34849;-83
2022/01/04 08:40:48;;;;;;;21.73;9.07;;;;;;;6.38;100.00;98756.52;3467154;83;99542;-83
2022/01/04 08:45:49;;;;;;;18.77;8.53;;;;;;;6.45;100.00;98748.92;3422018;84;99081;-83
2022/01/04 08:50:50;;;;;;;18.50;7.53;;;;;;;6.49;100.00;98755.17;3423055;84;99133;-83
2022/01/04 08:55:51;;;;;;;30.37;10.97;;;;;;;6.57;100.00;98752.05;3437945;84;99184;-82
2022/01/04 09:00:52;;;;;;;13.83;6.60;;;;;;;6.63;100.00;98744.23;3429861;84;99484;-83
2022/01/04 09:05:53;;;;;;;18.47;7.30;;;;;;;6.68;100.00;98726.86;3441005;84;34822;-82
2022/01/04 09:10:54;;;;;;;16.57;6.70;;;;;;;6.74;100.00;98732.12;3426758;84;98512;-83
2022/01/04 09:18:43;;;;;;;14.50;7.33;;;;;;;6.79;100.00;98715.91;3433907;84;99130;-83
2022/01/04 09:20:59;;;;;;;16.03;7.13;;;;;;;6.85;100.00;98714.33;3420821;84;98908;-82
2022/01/04 09:26:09;;;;;;;15.43;7.40;;;;;;;6.91;100.00;98709.45;3431342;84;98990;-83
2022/01/04 09:31:11;;;;;;;15.08;7.33;;;;;;;6.96;100.00;98707.68;3428682;84;99143;-83
2022/01/04 09:36:12;;;;;;;17.63;8.07;;;;;;;7.01;100.00;98698.28;3441124;84;26152;-83
2022/01/04 09:41:13;;;;;;;15.87;8.17;;;;;;;7.08;100.00;98696.89;3432225;84;99085;-82
2022/01/04 09:46:14;;;;;;;16.90;8.80;;;;;;;7.12;100.00;98683.41;3441998;84;98947;-83
2022/01/04 09:51:19;;;;;;;16.97;8.20;;;;;;;7.18;100.00;98677.72;3472353;83;99233;-83
2022/01/04 09:56:20;;;;;;;15.97;7.80;;;;;;;7.19;100.00;98667.57;3468120;83;99231;-84
2022/01/04 10:01:25;;;;;;;16.00;8.07;;;;;;;7.21;100.00;98670.08;3464681;83;99278;-84
2022/01/04 10:06:26;;;;;;;14.65;7.85;;;;;;;7.24;100.00;98647.98;3470366;83;32158;-84
2022/01/04 10:11:42;;;;;;;14.33;6.80;;;;;;;7.26;100.00;98649.75;3460905;82;99051;-83
2022/01/04 10:16:52;;;;;;;12.07;6.63;;;;;;;7.26;100.00;98642.91;3472242;83;98538;-84
2022/01/04 10:22:20;;;;;;;15.83;7.47;;;;;;;7.28;100.00;98628.23;3469513;83;98652;-83
2022/01/04 10:27:25;;;;;;;20.60;8.85;;;;;;;7.29;100.00;98617.47;3470101;83;98677;-82
2022/01/04 10:32:26;;;;;;;17.73;7.87;;;;;;;7.30;100.00;98607.51;3467694;82;99103;-83
2022/01/04 10:37:40;;;;;;;17.13;8.00;;;;;;;7.30;100.00;98615.72;3472573;83;98689;-83
2022/01/04 10:42:40;;;;;;;21.57;11.33;;;;;;;7.33;100.00;98609.46;3473149;82;98686;-83
2022/01/04 10:47:41;;;;;;;17.53;9.07;;;;;;;7.39;100.00;98605.70;3468061;83;35474;-82
2022/01/04 10:52:42;;;;;;;18.20;9.93;;;;;;;7.45;100.00;98584.95;3466121;83;98691;-83
2022/01/04 10:57:43;;;;;;;19.03;9.53;;;;;;;7.51;100.00;98566.92;3420767;85;98770;-82
2022/01/04 11:02:44;;;;;;;17.33;9.57;;;;;;;7.55;100.00;98571.78;3400866;85;99095;-83
2022/01/04 11:08:01;;;;;;;17.90;9.27;;;;;;;7.59;100.00;98565.09;3369536;86;99131;-83
2022/01/04 11:13:03;;;;;;;17.83;8.37;;;;;;;7.65;100.00;98555.89;3309281;87;99101;-83
2022/01/04 11:18:04;;;;;;;18.43;8.80;;;;;;;7.70;100.00;98543.14;3338443;88;26909;-83
2022/01/04 11:23:06;;;;;;;18.85;9.13;;;;;;;7.75;100.00;98511.22;3369263;86;98981;-83
2022/01/04 11:28:09;;;;;;;21.00;10.87;;;;;;;7.81;100.00;98487.70;3336611;86;99071;-83
2022/01/04 11:33:25;;;;;;;15.80;8.93;;;;;;;7.83;100.00;98483.95;3449002;83;99000;-83
2022/01/04 11:38:37;;;;;;;19.53;9.00;;;;;;;7.86;100.00;98470.83;3445209;83;99092;-82
2022/01/04 11:43:39;;;;;;;19.60;9.70;;;;;;;7.91;100.00;98453.35;3398340;85;99176;-83
2022/01/04 11:48:42;;;;;;;16.40;8.80;;;;;;;7.96;100.00;98435.72;3432751;84;98771;-82
2022/01/04 11:53:48;;;;;;;18.17;9.77;;;;;;;7.98;100.00;98421.02;3383052;85;26357;-83
2022/01/04 11:58:51;;;;;;;16.55;9.45;;;;;;;8.02;100.00;98408.83;3438181;82;99015;-83
2022/01/04 12:03:52;;;;;;;15.90;8.80;;;;;;;8.06;100.00;98401.94;3412551;84;98477;-83
2022/01/04 12:08:54;;;;;;;13.97;8.47;;;;;;;8.03;100.00;98389.08;3438839;84;99107;-83
2022/01/04 12:13:58;;;;;;;15.63;8.57;;;;;;;8.05;100.00;98395.70;3474059;82;98773;-82
2022/01/04 12:19:03;;;;;;;15.55;8.68;;;;;;;8.07;100.00;98396.66;3378899;84;99323;-83
2022/01/04 12:24:07;;;;;;;16.20;7.87;;;;;;;8.08;100.00;98396.23;3406955;85;30941;-83
2022/01/04 12:29:17;;;;;;;15.27;8.43;;;;;;;8.11;100.00;98387.21;3389328;84;98728;-83
2022/01/04 12:34:51;;;;;;;14.63;8.53;;;;;;;8.14;100.00;98382.30;3482620;83;98907;-84
2022/01/04 12:39:56;;;;;;;17.57;9.55;;;;;;;8.16;100.00;98379.91;3493811;83;98849;-83
2022/01/04 12:44:58;;;;;;;16.15;8.33;;;;;;;8.15;100.00;98366.62;3457875;83;98856;-84
2022/01/04 12:50:05;;;;;;;20.70;9.03;;;;;;;8.12;100.00;98352.39;3416154;83;98937;-83
2022/01/04 12:55:12;;;;;;;16.97;8.83;;;;;;;8.12;100.00;98344.93;3493018;83;98793;-83
2022/01/04 13:00:15;;;;;;;15.13;8.30;;;;;;;8.11;100.00;98330.27;3484073;83;98298;-83
2022/01/04 13:05:18;;;;;;;17.75;8.95;;;;;;;8.07;100.00;98313.88;3490617;83;99212;-84
2022/01/04 13:10:19;;;;;;;18.35;9.05;;;;;;;8.14;100.00;98318.50;3485425;83;98479;-84
2022/01/04 13:15:22;;;;;;;14.83;8.13;;;;;;;8.15;100.00;98304.98;3488898;83;99169;-83
2022/01/04 13:20:26;;;;;;;18.20;8.83;;;;;;;8.13;100.00;98283.47;3486098;83;98688;-84
2022/01/04 13:25:29;;;;;;;15.63;9.10;;;;;;;8.15;100.00;98279.73;3478546;83;98759;-85
2022/01/04 13:30:30;;;;;;;21.37;11.33;;;;;;;8.14;100.00;98274.67;3479679;83;99079;-85
2022/01/04 13:35:35;;;;;;;19.77;11.33;;;;;;;8.15;100.00;98254.30;3487024;83;34918;-84
2022/01/04 13:40:38;;;;;;;18.00;10.37;;;;;;;8.13;100.00;98240.25;3493436;83;99045;-86
2022/01/04 13:45:51;;;;;;;20.62;12.07;;;;;;;8.16;100.00;98254.47;3494741;83;99088;-85
2022/01/04 13:50:53;;;;;;;23.55;12.13;;;;;;;8.18;100.00;98252.88;3489332;83;99497;-86
2022/01/04 13:55:59;;;;;;;19.63;10.60;;;;;;;8.19;100.00;98250.31;3494420;83;99563;-86
2022/01/04 14:01:24;;;;;;;23.02;13.95;;;;;;;8.21;100.00;98246.61;3498249;83;99406;-85
2022/01/04 14:06:39;;;;;;;32.48;19.00;;;;;;;8.22;100.00;98253.63;3499660;84;28944;-85
2022/01/04 14:11:43;;;;;;;32.17;20.82;;;;;;;8.20;100.00;98246.44;3492505;83;98684;-85
2022/01/04 14:16:59;;;;;;;32.33;19.42;;;;;;;8.20;100.00;98219.03;3499209;83;98734;-85
2022/01/04 14:22:06;;;;;;;27.98;17.52;;;;;;;8.21;100.00;98209.63;3494491;83;98827;-86
2022/01/04 14:27:25;;;;;;;21.70;14.13;;;;;;;8.17;100.00;98208.08;3488279;83;99343;-85
2022/01/04 14:32:42;;;;;;;28.60;17.67;;;;;;;8.10;100.00;98208.98;3409997;83;99185;-85
2022/01/04 14:37:45;;;;;;;28.73;17.50;;;;;;;8.13;100.00;98208.74;3489937;83;98909;-85
2022/01/04 14:42:46;;;;;;;33.28;19.10;;;;;;;8.06;100.00;98213.72;3486693;84;98761;-86
2022/01/04 14:47:48;;;;;;;29.87;17.47;;;;;;;7.99;100.00;98222.63;3504924;81;98923;-86
2022/01/04 14:52:51;;;;;;;22.83;14.23;;;;;;;7.94;100.00;98213.50;3566756;81;98750;-86
2022/01/04 14:57:52;;;;;;;22.63;13.17;;;;;;;7.88;100.00;98217.31;3549144;81;98961;-87
2022/01/04 15:03:44;;;;;;;25.43;14.00;;;;;;;7.83;100.00;98197.81;3562565;81;98927;-88
2022/01/04 15:08:56;;;;;;;30.93;18.10;;;;;;;7.80;100.00;98197.28;3547299;79;26549;-89
2022/01/04 15:15:09;;;;;;;;;;;;;;;;;;;;;
2022/01/04 15:20:40;;;;;;;;;;;;;;;;;;;;;
2022/01/04 15:32:13;;;;;;;30.43;17.20;;;;;;;7.73;100.00;98217.31;3171009;90;98957;-92
2022/01/04 15:37:17;;;;;;;32.57;19.37;;;;;;;7.72;100.00;98227.30;3041923;94;99026;-92
2022/01/04 15:42:29;;;;;;;30.52;19.12;;;;;;;7.68;100.00;98217.01;3147718;88;99029;-91
2022/01/04 15:47:50;;;;;;;38.20;22.67;;;;;;;7.65;100.00;98209.02;3375541;84;99165;-92
2022/01/04 15:52:46;;;;;;;42.40;23.47;;;;;;;7.62;100.00;98211.20;3432284;81;99134;-90
2022/01/04 15:57:48;;;;;;;47.00;26.13;;;;;;;7.62;100.00;98209.83;3559603;81;99199;-91
2022/01/04 16:02:50;;;;;;;41.60;25.77;;;;;;;7.60;100.00;98201.84;3571994;81;98560;-91
2022/01/04 16:07:51;;;;;;;51.13;41.43;;;;;;;7.63;100.00;98202.41;3566540;81;99169;-92
2022/01/04 16:12:52;;;;;;;63.77;49.63;;;;;;;7.63;100.00;98199.67;3569526;81;99319;-89
2022/01/04 16:18:00;;;;;;;45.73;35.10;;;;;;;7.57;100.00;98195.23;3571394;81;99424;-90
2022/01/04 16:22:59;;;;;;;34.35;22.65;;;;;;;7.54;100.00;98200.17;3559744;81;98899;-89
2022/01/04 16:28:03;;;;;;;43.42;31.10;;;;;;;7.51;100.00;98199.61;3563786;81;98936;-90
2022/01/04 16:33:04;;;;;;;33.27;21.53;;;;;;;7.48;100.00;98199.05;3504875;82;98210;-89
2022/01/04 16:38:04;;;;;;;34.10;21.20;;;;;;;7.45;100.00;98201.83;3498071;83;98769;-90
2022/01/04 16:43:06;;;;;;;30.00;18.43;;;;;;;7.43;100.00;98207.73;3512381;82;98757;-90
2022/01/04 16:48:07;;;;;;;31.23;19.13;;;;;;;7.40;100.00;98200.34;3458253;83;98935;-90
2022/01/04 16:53:08;;;;;;;53.53;34.77;;;;;;;7.38;100.00;98202.72;3468266;83;99294;-88
2022/01/04 16:58:12;;;;;;;46.27;32.03;;;;;;;7.35;100.00;98199.41;3460884;83;98924;-89
2022/01/04 17:03:12;;;;;;;30.13;20.47;;;;;;;7.33;100.00;98195.53;3511821;82;25832;-88
2022/01/04 17:08:15;;;;;;;27.85;17.50;;;;;;;7.29;100.00;98197.53;3465080;83;98858;-88
2022/01/04 17:18:35;;;;;;;35.13;18.55;;;;;;;7.23;100.00;98199.16;3463310;83;99024;-88
2022/01/04 17:23:40;;;;;;;32.80;19.77;;;;;;;7.21;100.00;98213.24;3469163;83;98925;-90
2022/01/04 17:28:43;;;;;;;35.20;18.02;;;;;;;7.18;100.00;98215.45;3460945;83;99130;-89
2022/01/04 17:33:45;;;;;;;36.77;21.13;;;;;;;7.14;100.00;98216.06;3574341;81;99318;-90
2022/01/04 17:38:52;;;;;;;33.43;20.40;;;;;;;7.10;100.00;98220.03;3554471;81;98652;-88
2022/01/04 17:43:52;;;;;;;26.65;15.30;;;;;;;7.08;100.00;98219.64;3562349;81;98804;-91
2022/01/04 17:48:54;;;;;;;27.63;15.00;;;;;;;7.07;100.00;98212.05;3559154;81;99109;-91
2022/01/04 17:53:55;;;;;;;28.30;15.87;;;;;;;7.05;100.00;98204.06;3528860;82;98951;-92
2022/01/04 17:58:56;;;;;;;40.50;20.27;;;;;;;7.00;100.00;98221.70;3538345;82;98923;-89
2022/01/04 18:03:57;;;;;;;41.83;25.27;;;;;;;7.00;100.00;98220.91;3549333;82;98926;-89
2022/01/04 18:08:58;;;;;;;38.10;22.98;;;;;;;6.98;100.00;98232.25;3538959;82;98966;-88
2022/01/04 18:13:59;;;;;;;31.87;19.13;;;;;;;6.94;100.00;98230.73;3546259;82;98690;-88
2022/01/04 18:19:00;;;;;;;26.97;16.67;;;;;;;6.89;100.00;98240.16;3546357;82;99051;-89
2022/01/04 18:24:04;;;;;;;21.35;12.88;;;;;;;6.83;100.00;98242.37;3546962;83;98933;-90
2022/01/04 18:29:05;;;;;;;20.13;11.47;;;;;;;6.75;100.00;98237.55;3541189;83;99379;-90
2022/01/04 18:34:07;;;;;;;23.10;13.27;;;;;;;6.72;100.00;98252.02;3532631;82;98826;-91
2022/01/04 18:39:10;;;;;;;20.30;10.83;;;;;;;6.67;100.00;98250.31;3536878;82;99218;-91
2022/01/04 18:44:13;;;;;;;19.87;11.90;;;;;;;6.60;100.00;98255.23;3547866;82;98658;-92
2022/01/04 18:49:14;;;;;;;24.02;12.37;;;;;;;6.59;100.00;98266.56;3518414;82;99714;-92
2022/01/04 18:54:15;;;;;;;20.67;11.57;;;;;;;6.56;100.00;98259.19;3563229;81;98904;-89
2022/01/04 18:59:16;;;;;;;18.50;10.10;;;;;;;6.53;100.00;98269.55;3551950;81;98857;-92
2022/01/04 19:04:18;;;;;;;17.70;9.73;;;;;;;6.47;100.00;98258.28;3567605;81;98812;-89
2022/01/04 19:09:19;;;;;;;16.30;8.87;;;;;;;6.44;100.00;98274.09;3562057;81;98629;-89
2022/01/04 19:14:20;;;;;;;18.95;10.08;;;;;;;6.42;100.00;98279.20;3547785;81;98880;-89
2022/01/04 19:19:21;;;;;;;21.10;10.57;;;;;;;6.39;100.00;98276.49;3552335;81;99126;-88
2022/01/04 19:24:28;;;;;;;19.37;10.23;;;;;;;6.38;100.00;98276.31;3573479;81;98813;-88
2022/01/04 19:29:31;;;;;;;;;;;;;;;6.37;100.00;98277.47;3571504;81;99047;-90
2022/01/04 19:39:51;;;;;;;21.25;12.07;;;;;;;6.29;100.00;98283.59;3564050;81;98709;-89
2022/01/04 19:44:54;;;;;;;27.13;14.13;;;;;;;6.23;100.00;98283.80;3558338;81;35660;-88
2022/01/04 19:49:57;;;;;;;21.77;12.03;;;;;;;6.19;100.00;98305.48;3566627;81;98954;-88
2022/01/04 19:54:58;;;;;;;21.17;11.00;;;;;;;6.16;100.00;98300.84;3558334;81;99097;-88
2022/01/04 20:00:02;;;;;;;24.97;13.10;;;;;;;6.12;100.00;98306.89;3557266;81;98996;-88
2022/01/04 20:05:05;;;;;;;17.20;9.20;;;;;;;6.10;100.00;98316.84;3565209;81;98935;-88
2022/01/04 20:10:13;;;;;;;17.80;8.50;;;;;;;6.07;100.00;98319.02;3491373;83;98729;-88
2022/01/04 20:15:13;;;;;;;15.95;8.48;;;;;;;6.01;100.00;98328.77;3498279;83;26431;-88
2022/01/04 20:20:18;;;;;;;39.97;15.37;;;;;;;5.95;100.00;98333.09;3473595;84;98642;-88
2022/01/04 20:25:19;;;;;;;27.70;11.78;;;;;;;5.92;100.00;98333.11;3505318;83;99054;-88
2022/01/04 20:30:25;;;;;;;31.13;10.83;;;;;;;5.89;100.00;98345.60;3500740;83;99324;-87
2022/01/04 20:35:26;;;;;;;27.27;11.03;;;;;;;5.86;100.00;98343.68;3507114;82;99017;-88
2022/01/04 20:40:32;;;;;;;25.23;11.20;;;;;;;5.84;100.00;98337.81;3460582;83;98924;-88
2022/01/04 20:45:35;;;;;;;18.35;8.80;;;;;;;5.84;100.00;98339.79;3470582;83;99301;-89
2022/01/04 20:50:36;;;;;;;19.10;9.68;;;;;;;5.84;100.00;98344.64;3499116;82;98717;-88
2022/01/04 20:55:37;;;;;;;17.07;8.97;;;;;;;5.85;100.00;98354.38;3483786;83;98869;-88
2022/01/04 21:00:39;;;;;;;27.90;12.77;;;;;;;5.88;100.00;98346.78;3535704;81;98803;-87
2022/01/04 21:05:41;;;;;;;24.97;12.60;;;;;;;5.91;100.00;98332.36;3571920;81;98931;-88
2022/01/04 21:10:41;;;;;;;19.87;11.50;;;;;;;5.96;100.00;98347.53;3562038;81;98941;-87
2022/01/04 21:15:42;;;;;;;18.57;10.13;;;;;;;5.99;100.00;98361.73;3557738;81;98897;-87
2022/01/04 21:20:44;;;;;;;22.93;11.90;;;;;;;6.02;100.00;98364.48;3562514;81;98990;-87
2022/01/04 21:25:47;;;;;;;19.50;10.20;;;;;;;6.06;100.00;98353.54;3573398;81;98709;-85
2022/01/04 21:30:48;;;;;;;19.85;11.25;;;;;;;6.09;100.00;98349.42;3561272;81;99238;-88
2022/01/04 21:35:54;;;;;;;20.13;10.00;;;;;;;6.12;100.00;98347.25;3569370;81;99371;-88
2022/01/04 21:40:55;;;;;;;19.80;10.85;;;;;;;6.15;100.00;98354.66;3562220;81;99349;-87
2022/01/04 21:45:58;;;;;;;18.47;10.60;;;;;;;6.19;100.00;98366.93;3572990;81;99345;-86
2022/01/04 21:51:00;;;;;;;20.80;9.88;;;;;;;6.21;100.00;98371.42;3566643;81;100386;-88
2022/01/04 21:56:01;;;;;;;19.83;10.83;;;;;;;6.23;100.00;98381.35;3572596;82;98672;-88
2022/01/04 22:01:02;;;;;;;20.80;11.03;;;;;;;6.25;100.00;98377.63;3564089;81;99503;-86
2022/01/04 22:06:04;;;;;;;19.37;10.10;;;;;;;6.28;100.00;98389.13;3570294;81;98979;-86
2022/01/04 22:11:05;;;;;;;22.93;11.87;;;;;;;6.30;100.00;98396.34;3539617;81;98911;-87
2022/01/04 22:16:08;;;;;;;24.20;13.37;;;;;;;6.29;100.00;98387.95;3567516;81;99624;-87
2022/01/04 22:21:13;;;;;;;23.98;12.78;;;;;;;6.30;100.00;98393.60;3565376;81;98833;-86
2022/01/04 22:26:14;;;;;;;22.57;11.83;;;;;;;6.33;100.00;98399.66;3563284;81;99088;-85
2022/01/04 22:31:15;;;;;;;24.30;12.33;;;;;;;6.34;100.00;98405.30;3566410;81;99122;-86
2022/01/04 22:36:16;;;;;;;19.70;11.03;;;;;;;6.35;100.00;98407.64;3575917;81;99290;-86
2022/01/04 22:41:17;;;;;;;20.20;10.33;;;;;;;6.36;100.00;98407.03;3561965;81;98826;-86
2022/01/04 22:46:20;;;;;;;19.70;10.33;;;;;;;6.37;100.00;98429.86;3569282;81;98864;-86
2022/01/04 22:51:22;;;;;;;17.87;9.80;;;;;;;6.37;100.00;98427.13;3568348;81;98515;-86
2022/01/04 22:56:23;;;;;;;17.77;9.60;;;;;;;6.38;100.00;98427.31;3546631;81;98403;-87
2022/01/04 23:01:24;;;;;;;18.63;10.13;;;;;;;6.40;100.00;98439.22;3545601;81;98798;-85
2022/01/04 23:06:25;;;;;;;20.17;11.30;;;;;;;6.39;100.00;98436.30;3577282;81;98812;-86
2022/01/04 23:11:25;;;;;;;20.97;11.30;;;;;;;6.38;100.00;98434.75;3562279;81;99018;-86
2022/01/04 23:16:26;;;;;;;23.43;11.03;;;;;;;6.37;100.00;98447.62;3571875;81;99288;-86
2022/01/04 23:21:28;;;;;;;22.33;10.43;;;;;;;6.37;100.00;98433.17;3567957;81;98418;-85
2022/01/04 23:26:30;;;;;;;22.93;10.70;;;;;;;6.36;100.00;98446.06;3570828;81;98931;-85
2022/01/04 23:31:31;;;;;;;19.87;10.17;;;;;;;6.36;100.00;98456.20;3556712;81;99108;-85
2022/01/04 23:36:32;;;;;;;22.30;10.40;;;;;;;6.35;100.00;98456.81;3575049;81;99251;-86
2022/01/04 23:41:33;;;;;;;17.73;8.20;;;;;;;6.31;100.00;98458.77;3564994;81;98859;-86
2022/01/04 23:46:34;;;;;;;18.70;8.80;;;;;;;6.28;100.00;98454.08;3569871;81;99139;-85
2022/01/04 23:51:35;;;;;;;16.25;7.92;;;;;;;6.24;100.00;98450.61;3563937;81;99148;-86
2022/01/04 23:56:36;;;;;;;16.77;8.27;;;;;;;6.18;100.00;98454.13;3568014;81;35454;-86
